CNB weather

Public forecast

Using degrees Celsius for public forecast. Weather courtesy of forecast.io.

Current aviation weather report (METAR) for Coonamble Airport

Retrieved 2020/08/14 17:00 UTC (27 minutes ago):

YCNM 141700Z AUTO 27008KT //// // ////// 11/11 Q1011

Closest aviation forecast (TAF) to Coonamble Airport

Forecast is more than 12 hours old.

Closest forecast is Dubbo City Regional Airport, 74.7 nm (138.4 km) S. Retrieved 2020-08-14 00:36 UTC (17 hours ago):

TAF TAF YSDU 132310Z 1400/1418 12005KT 9999 -RA NSC FM140300 03005KT 9999 -RA SCT010 FM141000 12008KT 9999 -RA SCT005 TEMPO 1400/1414 4000 RA BKN010 INTER 1414/1418 4000 RA BKN005